Annamarie — CQFZ — position and weather

sailwx.info

Track history (hours):
 
Tides and Currents Weather Stations Pressure Air Temp Water Temp Dewpoint Dewpoint Depression Visibility Wind Speed Wind Dir Waves Ship Positions

Annamarie

Last reported at 2018-Jun-18 17:00 UTC. Time now 2018-Jun-18 17:20 UTC.
Position N 28°40' W 015°28'.

Length 138 m; draft 6 m.

Type: Ship (hazmat cat A). MMSI: 255805627.

Date/timePositionNaut miles runAvg speedWind from/ knotsBaromVisibWave heightAir tempDewpointWater temp
2018-Jun-18 17:00N 28°40' W 015°28'611.4
2018-Jun-18 16:30N 28°39' W 015°34'611.4
2018-Jun-18 16:00N 28°39' W 015°41'611.2
2018-Jun-18 15:30N 28°38' W 015°47'611.0
2018-Jun-18 15:00N 28°36' W 015°53'510.9
2018-Jun-18 14:30N 28°33' W 015°59'510.7
2018-Jun-18 14:00N 28°31' W 016°04'510.7
2018-Jun-18 13:30N 28°29' W 016°10'3 6.7
2018-Jun-18 13:00N 28°29' W 016°14'0 0.0
2018-Jun-18 12:27N 28°29' W 016°14'0 0.0
2018-Jun-18 12:00N 28°29' W 016°14'0 0.0
2018-Jun-18 11:30N 28°29' W 016°14'0 0.0
2018-Jun-18 11:00N 28°29' W 016°14'0 0.0
2018-Jun-18 10:30N 28°29' W 016°14'0 0.0
2018-Jun-18 10:00N 28°29' W 016°14'0 0.0
2018-Jun-18 09:30N 28°29' W 016°14'0 0.0
2018-Jun-18 09:00N 28°29' W 016°14'0 0.0
2018-Jun-18 08:30N 28°29' W 016°14'0 0.0
2018-Jun-18 08:00N 28°29' W 016°14'0 0.0
2018-Jun-18 07:30N 28°29' W 016°14'0 0.0
2018-Jun-18 07:00N 28°29' W 016°14'0 0.0
2018-Jun-18 06:30N 28°29' W 016°14'0 0.1
2018-Jun-18 06:01N 28°29' W 016°14'2 3.3
2018-Jun-18 05:31N 28°28' W 016°13'5 9.3
2018-Jun-18 05:00N 28°26' W 016°08'5 9.9
2018-Jun-18 04:30N 28°25' W 016°03'5 9.9
2018-Jun-18 04:00N 28°23' W 015°57'5 9.9
2018-Jun-18 03:30N 28°21' W 015°52'510.3
2018-Jun-18 03:00N 28°19' W 015°47'510.3
2018-Jun-18 02:30N 28°18' W 015°41'510.3
2018-Jun-18 02:00N 28°16' W 015°36'510.3
2018-Jun-18 01:30N 28°14' W 015°30'510.5
2018-Jun-18 01:00N 28°12' W 015°25'5 9.0
2018-Jun-18 00:30N 28°08' W 015°23'2 3.3
2018-Jun-17 23:59N 28°08' W 015°25'0 0.0
2018-Jun-17 23:29N 28°08' W 015°25'0 0.0
2018-Jun-17 22:59N 28°08' W 015°25'0 0.0
2018-Jun-17 22:29N 28°08' W 015°25'0 0.0
2018-Jun-17 21:59N 28°08' W 015°25'0 0.0
2018-Jun-17 21:29N 28°08' W 015°25'0 0.0
2018-Jun-17 20:59N 28°08' W 015°25'0 0.0
2018-Jun-17 20:20N 28°08' W 015°25'0 0.0
2018-Jun-17 19:50N 28°08' W 015°25'0 0.0
2018-Jun-17 19:23N 28°08' W 015°25'0 0.0
2018-Jun-17 18:53N 28°08' W 015°25'0 0.0
2018-Jun-17 18:23N 28°08' W 015°25'0 0.0
2018-Jun-17 17:53N 28°08' W 015°25'0 0.0
2018-Jun-17 17:23N 28°08' W 015°25'0 0.0
2018-Jun-17 16:53N 28°08' W 015°25'0 0.0
2018-Jun-17 16:26N 28°08' W 015°25'0 0.0
2018-Jun-17 15:56N 28°08' W 015°25'0 0.0
2018-Jun-17 15:26N 28°08' W 015°25'0 0.0
2018-Jun-17 14:56N 28°08' W 015°25'0 0.0
2018-Jun-17 14:25N 28°08' W 015°25'1 2.1
2018-Jun-17 14:00N 28°07' W 015°24'611.3
2018-Jun-17 13:30N 28°11' W 015°19'917.6
2018-Jun-17 13:00N 28°17' W 015°13'917.5
2018-Jun-17 12:31N 28°24' W 015°07'917.6
2018-Jun-17 12:01N 28°31' W 015°00'917.3
2018-Jun-17 11:31N 28°38' W 014°54'1617.2
2018-Jun-17 10:33N 28°51' W 014°43'117.3
2018-Jun-17 10:31N 28°51' W 014°42'1017.3
2018-Jun-17 09:55N 28°59' W 014°35'717.6
2018-Jun-17 09:30N 29°05' W 014°30'23917.8
2018-Jun-16 20:03N 32°11' W 011°36'317.8
2018-Jun-16 19:53N 32°14' W 011°34'25217.1
2018-Jun-16 05:12N 35°30' W 008°24'316.9
2018-Jun-16 05:00N 35°32' W 008°21'917.0
2018-Jun-16 04:30N 35°39' W 008°15'816.8
2018-Jun-16 04:01N 35°45' W 008°08'917.1
2018-Jun-16 03:30N 35°52' W 008°01'917.1
2018-Jun-16 03:00N 35°59' W 007°55'816.8
2018-Jun-16 02:30N 36°05' W 007°48'816.9
2018-Jun-16 02:00N 36°12' W 007°42'916.7
2018-Jun-16 01:30N 36°18' W 007°35'917.2
2018-Jun-16 01:00N 36°25' W 007°28'917.1
2018-Jun-16 00:29N 36°32' W 007°22'2917.4
2018-Jun-15 22:51N 36°54' W 006°59'1416.3
2018-Jun-15 21:58N 37°06' W 006°49'88 2.1
2018-Jun-14 03:47N 35°53' W 007°50'415.3
2018-Jun-14 03:30N 35°50' W 007°53'48015.0
2018-Jun-12 19:33N 29°14' W 013°15'115.8
2018-Jun-12 19:29N 29°13' W 013°15'815.6
2018-Jun-12 18:58N 29°07' W 013°21'715.4
2018-Jun-12 18:30N 29°01' W 013°26'612.2
2018-Jun-12 18:01N 28°58' W 013°32'1 1.0
2018-Jun-12 17:24N 28°58' W 013°32'0 0.0
2018-Jun-12 16:24N 28°58' W 013°32'0 0.0
2018-Jun-12 15:48N 28°58' W 013°32'0 0.0
2018-Jun-12 14:36N 28°58' W 013°32'0 0.1
2018-Jun-12 14:19N 28°58' W 013°32'0 1.5
2018-Jun-12 14:00N 28°58' W 013°32'713.0
2018-Jun-12 13:29N 28°52' W 013°36'816.7
2018-Jun-12 13:00N 28°45' W 013°40'14 1.5
2018-Jun-12 03:51N 28°33' W 013°48'4 9.6
2018-Jun-12 03:29N 28°36' W 013°47'5 9.4
2018-Jun-12 03:00N 28°41' W 013°47'11 7.6
2018-Jun-12 01:33N 28°47' W 013°57'110.9
2018-Jun-12 01:26N 28°47' W 013°59'510.6
2018-Jun-12 01:00N 28°47' W 014°04'610.4
2018-Jun-12 00:28N 28°46' W 014°10'610.3
2018-Jun-11 23:55N 28°46' W 014°17'410.2
2018-Jun-11 23:30N 28°45' W 014°22'510.2
2018-Jun-11 22:58N 28°45' W 014°28'510.1
2018-Jun-11 22:30N 28°45' W 014°33'510.2
2018-Jun-11 22:00N 28°44' W 014°39'510.6
2018-Jun-11 21:30N 28°44' W 014°45'611.7
2018-Jun-11 21:00N 28°43' W 014°51'611.5
2018-Jun-11 20:30N 28°42' W 014°58'510.3
2018-Jun-11 20:00N 28°41' W 015°04'510.2
2018-Jun-11 19:30N 28°41' W 015°09'510.7
2018-Jun-11 19:00N 28°40' W 015°16'611.5
2018-Jun-11 18:30N 28°40' W 015°22'611.4
2018-Jun-11 18:00N 28°39' W 015°29'611.1
2018-Jun-11 17:30N 28°38' W 015°35'510.8
2018-Jun-11 17:00N 28°38' W 015°41'510.9
2018-Jun-11 16:30N 28°37' W 015°47'510.8
2018-Jun-11 16:01N 28°36' W 015°53'510.6
2018-Jun-11 15:30N 28°34' W 015°58'510.8
2018-Jun-11 15:00N 28°31' W 016°04'510.7
2018-Jun-11 14:30N 28°29' W 016°10'4 2.4
2018-Jun-11 13:01N 28°29' W 016°14'0 0.0
2018-Jun-11 12:52N 28°29' W 016°14'0 0.0
2018-Jun-11 09:19N 28°29' W 016°14'0 0.0
2018-Jun-11 06:40N 28°29' W 016°14'0 0.1
2018-Jun-11 06:30N 28°29' W 016°14'3 6.4
2018-Jun-11 06:01N 28°27' W 016°11'917.1
2018-Jun-11 05:30N 28°24' W 016°02'917.2
2018-Jun-11 05:00N 28°21' W 015°53'917.2
2018-Jun-11 04:30N 28°19' W 015°43'817.1
2018-Jun-11 04:00N 28°16' W 015°34'816.6
2018-Jun-11 03:30N 28°13' W 015°25'713.1
2018-Jun-11 03:00N 28°07' W 015°23'2 3.4
2018-Jun-11 02:30N 28°08' W 015°25'0 0.0
2018-Jun-11 01:56N 28°08' W 015°25'0 0.0
2018-Jun-11 01:29N 28°08' W 015°25'0 0.0
2018-Jun-11 00:59N 28°08' W 015°25'0 0.0
2018-Jun-11 00:29N 28°08' W 015°25'0 0.0
2018-Jun-10 23:59N 28°08' W 015°25'0 0.0
2018-Jun-10 23:29N 28°08' W 015°25'0 0.0
2018-Jun-10 22:59N 28°08' W 015°25'0 0.0
2018-Jun-10 22:29N 28°08' W 015°25'0 0.0
2018-Jun-10 21:59N 28°08' W 015°25'0 0.0
2018-Jun-10 21:29N 28°08' W 015°25'0 0.0
2018-Jun-10 20:59N 28°08' W 015°25'0 0.0
2018-Jun-10 20:29N 28°08' W 015°25'0 0.0
2018-Jun-10 19:59N 28°08' W 015°25'0 0.0
2018-Jun-10 19:29N 28°08' W 015°25'0 0.0
2018-Jun-10 18:59N 28°08' W 015°25'0 0.0
2018-Jun-10 18:17N 28°08' W 015°25'0 0.0
2018-Jun-10 17:50N 28°08' W 015°25'0 0.0
2018-Jun-10 17:20N 28°08' W 015°25'0 0.0
2018-Jun-10 16:57N 28°08' W 015°25'2 4.0
2018-Jun-10 16:29N 28°07' W 015°23'511.2
2018-Jun-10 16:00N 28°11' W 015°19'714.2
2018-Jun-10 15:30N 28°16' W 015°14'816.0
2018-Jun-10 15:00N 28°23' W 015°08'815.8
2018-Jun-10 14:30N 28°29' W 015°02'  
Track history (hours):
 
Tides and Currents Weather Stations Pressure Air Temp Water Temp Dewpoint Dewpoint Depression Visibility Wind Speed Wind Dir Waves Ship Positions

Annamarie

Last reported at 2018-Jun-18 17:00 UTC. Time now 2018-Jun-18 17:20 UTC.
Position N 28°40' W 015°28'.

Length 138 m; draft 6 m.

Type: Ship (hazmat cat A). MMSI: 255805627.

Date/timePositionNaut miles runAvg speedWind from/ knotsBaromVisibWave heightAir tempDewpointWater temp
2018-Jun-18 17:00N 28°40' W 015°28'611.4
2018-Jun-18 16:30N 28°39' W 015°34'611.4
2018-Jun-18 16:00N 28°39' W 015°41'611.2
2018-Jun-18 15:30N 28°38' W 015°47'611.0
2018-Jun-18 15:00N 28°36' W 015°53'510.9
2018-Jun-18 14:30N 28°33' W 015°59'510.7
2018-Jun-18 14:00N 28°31' W 016°04'510.7
2018-Jun-18 13:30N 28°29' W 016°10'3 6.7
2018-Jun-18 13:00N 28°29' W 016°14'0 0.0
2018-Jun-18 12:27N 28°29' W 016°14'0 0.0
2018-Jun-18 12:00N 28°29' W 016°14'0 0.0
2018-Jun-18 11:30N 28°29' W 016°14'0 0.0
2018-Jun-18 11:00N 28°29' W 016°14'0 0.0
2018-Jun-18 10:30N 28°29' W 016°14'0 0.0
2018-Jun-18 10:00N 28°29' W 016°14'0 0.0
2018-Jun-18 09:30N 28°29' W 016°14'0 0.0
2018-Jun-18 09:00N 28°29' W 016°14'0 0.0
2018-Jun-18 08:30N 28°29' W 016°14'0 0.0
2018-Jun-18 08:00N 28°29' W 016°14'0 0.0
2018-Jun-18 07:30N 28°29' W 016°14'0 0.0
2018-Jun-18 07:00N 28°29' W 016°14'0 0.0
2018-Jun-18 06:30N 28°29' W 016°14'0 0.1
2018-Jun-18 06:01N 28°29' W 016°14'2 3.3
2018-Jun-18 05:31N 28°28' W 016°13'5 9.3
2018-Jun-18 05:00N 28°26' W 016°08'5 9.9
2018-Jun-18 04:30N 28°25' W 016°03'5 9.9
2018-Jun-18 04:00N 28°23' W 015°57'5 9.9
2018-Jun-18 03:30N 28°21' W 015°52'510.3
2018-Jun-18 03:00N 28°19' W 015°47'510.3
2018-Jun-18 02:30N 28°18' W 015°41'510.3
2018-Jun-18 02:00N 28°16' W 015°36'510.3
2018-Jun-18 01:30N 28°14' W 015°30'510.5
2018-Jun-18 01:00N 28°12' W 015°25'5 9.0
2018-Jun-18 00:30N 28°08' W 015°23'2 3.3
2018-Jun-17 23:59N 28°08' W 015°25'0 0.0
2018-Jun-17 23:29N 28°08' W 015°25'0 0.0
2018-Jun-17 22:59N 28°08' W 015°25'0 0.0
2018-Jun-17 22:29N 28°08' W 015°25'0 0.0
2018-Jun-17 21:59N 28°08' W 015°25'0 0.0
2018-Jun-17 21:29N 28°08' W 015°25'0 0.0
2018-Jun-17 20:59N 28°08' W 015°25'0 0.0
2018-Jun-17 20:20N 28°08' W 015°25'0 0.0
2018-Jun-17 19:50N 28°08' W 015°25'0 0.0
2018-Jun-17 19:23N 28°08' W 015°25'0 0.0
2018-Jun-17 18:53N 28°08' W 015°25'0 0.0
2018-Jun-17 18:23N 28°08' W 015°25'0 0.0
2018-Jun-17 17:53N 28°08' W 015°25'0 0.0
2018-Jun-17 17:23N 28°08' W 015°25'0 0.0
2018-Jun-17 16:53N 28°08' W 015°25'0 0.0
2018-Jun-17 16:26N 28°08' W 015°25'0 0.0
2018-Jun-17 15:56N 28°08' W 015°25'0 0.0
2018-Jun-17 15:26N 28°08' W 015°25'0 0.0
2018-Jun-17 14:56N 28°08' W 015°25'0 0.0
2018-Jun-17 14:25N 28°08' W 015°25'1 2.1
2018-Jun-17 14:00N 28°07' W 015°24'611.3
2018-Jun-17 13:30N 28°11' W 015°19'917.6
2018-Jun-17 13:00N 28°17' W 015°13'917.5
2018-Jun-17 12:31N 28°24' W 015°07'917.6
2018-Jun-17 12:01N 28°31' W 015°00'917.3
2018-Jun-17 11:31N 28°38' W 014°54'1617.2
2018-Jun-17 10:33N 28°51' W 014°43'117.3
2018-Jun-17 10:31N 28°51' W 014°42'1017.3
2018-Jun-17 09:55N 28°59' W 014°35'717.6
2018-Jun-17 09:30N 29°05' W 014°30'23917.8
2018-Jun-16 20:03N 32°11' W 011°36'317.8
2018-Jun-16 19:53N 32°14' W 011°34'25217.1
2018-Jun-16 05:12N 35°30' W 008°24'316.9
2018-Jun-16 05:00N 35°32' W 008°21'917.0
2018-Jun-16 04:30N 35°39' W 008°15'816.8
2018-Jun-16 04:01N 35°45' W 008°08'917.1
2018-Jun-16 03:30N 35°52' W 008°01'917.1
2018-Jun-16 03:00N 35°59' W 007°55'816.8
2018-Jun-16 02:30N 36°05' W 007°48'816.9
2018-Jun-16 02:00N 36°12' W 007°42'916.7
2018-Jun-16 01:30N 36°18' W 007°35'917.2
2018-Jun-16 01:00N 36°25' W 007°28'917.1
2018-Jun-16 00:29N 36°32' W 007°22'2917.4
2018-Jun-15 22:51N 36°54' W 006°59'1416.3
2018-Jun-15 21:58N 37°06' W 006°49'88 2.1
2018-Jun-14 03:47N 35°53' W 007°50'415.3
2018-Jun-14 03:30N 35°50' W 007°53'48015.0
2018-Jun-12 19:33N 29°14' W 013°15'115.8
2018-Jun-12 19:29N 29°13' W 013°15'815.6
2018-Jun-12 18:58N 29°07' W 013°21'715.4
2018-Jun-12 18:30N 29°01' W 013°26'612.2
2018-Jun-12 18:01N 28°58' W 013°32'1 1.0
2018-Jun-12 17:24N 28°58' W 013°32'0 0.0
2018-Jun-12 16:24N 28°58' W 013°32'0 0.0
2018-Jun-12 15:48N 28°58' W 013°32'0 0.0
2018-Jun-12 14:36N 28°58' W 013°32'0 0.1
2018-Jun-12 14:19N 28°58' W 013°32'0 1.5
2018-Jun-12 14:00N 28°58' W 013°32'713.0
2018-Jun-12 13:29N 28°52' W 013°36'816.7
2018-Jun-12 13:00N 28°45' W 013°40'14 1.5
2018-Jun-12 03:51N 28°33' W 013°48'4 9.6
2018-Jun-12 03:29N 28°36' W 013°47'5 9.4
2018-Jun-12 03:00N 28°41' W 013°47'11 7.6
2018-Jun-12 01:33N 28°47' W 013°57'110.9
2018-Jun-12 01:26N 28°47' W 013°59'510.6
2018-Jun-12 01:00N 28°47' W 014°04'610.4
2018-Jun-12 00:28N 28°46' W 014°10'610.3
2018-Jun-11 23:55N 28°46' W 014°17'410.2
2018-Jun-11 23:30N 28°45' W 014°22'510.2
2018-Jun-11 22:58N 28°45' W 014°28'510.1
2018-Jun-11 22:30N 28°45' W 014°33'510.2
2018-Jun-11 22:00N 28°44' W 014°39'510.6
2018-Jun-11 21:30N 28°44' W 014°45'611.7
2018-Jun-11 21:00N 28°43' W 014°51'611.5
2018-Jun-11 20:30N 28°42' W 014°58'510.3
2018-Jun-11 20:00N 28°41' W 015°04'510.2
2018-Jun-11 19:30N 28°41' W 015°09'510.7
2018-Jun-11 19:00N 28°40' W 015°16'611.5
2018-Jun-11 18:30N 28°40' W 015°22'611.4
2018-Jun-11 18:00N 28°39' W 015°29'611.1
2018-Jun-11 17:30N 28°38' W 015°35'510.8
2018-Jun-11 17:00N 28°38' W 015°41'510.9
2018-Jun-11 16:30N 28°37' W 015°47'510.8
2018-Jun-11 16:01N 28°36' W 015°53'510.6
2018-Jun-11 15:30N 28°34' W 015°58'510.8
2018-Jun-11 15:00N 28°31' W 016°04'510.7
2018-Jun-11 14:30N 28°29' W 016°10'4 2.4
2018-Jun-11 13:01N 28°29' W 016°14'0 0.0
2018-Jun-11 12:52N 28°29' W 016°14'0 0.0
2018-Jun-11 09:19N 28°29' W 016°14'0 0.0
2018-Jun-11 06:40N 28°29' W 016°14'0 0.1
2018-Jun-11 06:30N 28°29' W 016°14'3 6.4
2018-Jun-11 06:01N 28°27' W 016°11'917.1
2018-Jun-11 05:30N 28°24' W 016°02'917.2
2018-Jun-11 05:00N 28°21' W 015°53'917.2
2018-Jun-11 04:30N 28°19' W 015°43'817.1
2018-Jun-11 04:00N 28°16' W 015°34'816.6
2018-Jun-11 03:30N 28°13' W 015°25'713.1
2018-Jun-11 03:00N 28°07' W 015°23'2 3.4
2018-Jun-11 02:30N 28°08' W 015°25'0 0.0
2018-Jun-11 01:56N 28°08' W 015°25'0 0.0
2018-Jun-11 01:29N 28°08' W 015°25'0 0.0
2018-Jun-11 00:59N 28°08' W 015°25'0 0.0
2018-Jun-11 00:29N 28°08' W 015°25'0 0.0
2018-Jun-10 23:59N 28°08' W 015°25'0 0.0
2018-Jun-10 23:29N 28°08' W 015°25'0 0.0
2018-Jun-10 22:59N 28°08' W 015°25'0 0.0
2018-Jun-10 22:29N 28°08' W 015°25'0 0.0
2018-Jun-10 21:59N 28°08' W 015°25'0 0.0
2018-Jun-10 21:29N 28°08' W 015°25'0 0.0
2018-Jun-10 20:59N 28°08' W 015°25'0 0.0
2018-Jun-10 20:29N 28°08' W 015°25'0 0.0
2018-Jun-10 19:59N 28°08' W 015°25'0 0.0
2018-Jun-10 19:29N 28°08' W 015°25'0 0.0
2018-Jun-10 18:59N 28°08' W 015°25'0 0.0
2018-Jun-10 18:17N 28°08' W 015°25'0 0.0
2018-Jun-10 17:50N 28°08' W 015°25'0 0.0
2018-Jun-10 17:20N 28°08' W 015°25'0 0.0
2018-Jun-10 16:57N 28°08' W 015°25'2 4.0
2018-Jun-10 16:29N 28°07' W 015°23'511.2
2018-Jun-10 16:00N 28°11' W 015°19'714.2
2018-Jun-10 15:30N 28°16' W 015°14'816.0
2018-Jun-10 15:00N 28°23' W 015°08'815.8
2018-Jun-10 14:30N 28°29' W 015°02'  

Dump ship's entire track history